sensor_id;sensor_type;location;lat;lon;timestamp;P1;durP1;ratioP1;P2;durP2;ratioP2
15340;SDS011;7770;52.158;5.372;2023-04-24T00:00:25;4.17;;;3.30;;
15340;SDS011;7770;52.158;5.372;2023-04-24T00:03:11;3.73;;;3.40;;
15340;SDS011;7770;52.158;5.372;2023-04-24T00:05:57;3.27;;;2.97;;
15340;SDS011;7770;52.158;5.372;2023-04-24T00:08:44;4.60;;;3.30;;
15340;SDS011;7770;52.158;5.372;2023-04-24T00:11:30;3.60;;;3.30;;
15340;SDS011;7770;52.158;5.372;2023-04-24T00:14:16;4.07;;;3.37;;
15340;SDS011;7770;52.158;5.372;2023-04-24T00:17:02;3.40;;;3.10;;
15340;SDS011;7770;52.158;5.372;2023-04-24T00:19:48;3.40;;;3.10;;
15340;SDS011;7770;52.158;5.372;2023-04-24T00:22:36;2.43;;;2.23;;
15340;SDS011;7770;52.158;5.372;2023-04-24T00:25:22;2.33;;;2.03;;
15340;SDS011;7770;52.158;5.372;2023-04-24T00:28:08;3.17;;;2.63;;
15340;SDS011;7770;52.158;5.372;2023-04-24T00:30:54;3.67;;;2.83;;
15340;SDS011;7770;52.158;5.372;2023-04-24T00:33:40;3.50;;;3.20;;
15340;SDS011;7770;52.158;5.372;2023-04-24T00:36:26;4.10;;;3.70;;
15340;SDS011;7770;52.158;5.372;2023-04-24T00:39:12;4.00;;;3.70;;
15340;SDS011;7770;52.158;5.372;2023-04-24T00:41:58;3.80;;;3.50;;
15340;SDS011;7770;52.158;5.372;2023-04-24T00:44:45;4.33;;;3.93;;
15340;SDS011;7770;52.158;5.372;2023-04-24T00:47:31;4.37;;;3.80;;
15340;SDS011;7770;52.158;5.372;2023-04-24T00:50:18;4.13;;;3.77;;
15340;SDS011;7770;52.158;5.372;2023-04-24T00:53:06;4.43;;;3.97;;
15340;SDS011;7770;52.158;5.372;2023-04-24T00:55:52;4.83;;;4.33;;
15340;SDS011;7770;52.158;5.372;2023-04-24T00:58:38;4.73;;;4.33;;
15340;SDS011;7770;52.158;5.372;2023-04-24T01:01:26;6.10;;;4.50;;
15340;SDS011;7770;52.158;5.372;2023-04-24T01:04:13;5.30;;;4.80;;
15340;SDS011;7770;52.158;5.372;2023-04-24T01:07:00;5.47;;;4.83;;
15340;SDS011;7770;52.158;5.372;2023-04-24T01:09:46;6.50;;;5.90;;
15340;SDS011;7770;52.158;5.372;2023-04-24T01:12:34;6.20;;;5.57;;
15340;SDS011;7770;52.158;5.372;2023-04-24T01:15:20;6.60;;;5.90;;
15340;SDS011;7770;52.158;5.372;2023-04-24T01:18:06;6.87;;;5.77;;
15340;SDS011;7770;52.158;5.372;2023-04-24T01:20:53;6.23;;;5.63;;
15340;SDS011;7770;52.158;5.372;2023-04-24T01:23:43;7.03;;;6.40;;
15340;SDS011;7770;52.158;5.372;2023-04-24T01:26:30;7.80;;;6.50;;
15340;SDS011;7770;52.158;5.372;2023-04-24T01:29:16;6.93;;;6.23;;
15340;SDS011;7770;52.158;5.372;2023-04-24T01:32:03;7.23;;;6.53;;
15340;SDS011;7770;52.158;5.372;2023-04-24T01:34:50;8.30;;;7.10;;
15340;SDS011;7770;52.158;5.372;2023-04-24T01:37:36;8.27;;;7.47;;
15340;SDS011;7770;52.158;5.372;2023-04-24T01:40:22;8.70;;;7.77;;
15340;SDS011;7770;52.158;5.372;2023-04-24T01:43:08;8.63;;;7.83;;
15340;SDS011;7770;52.158;5.372;2023-04-24T01:45:55;9.60;;;8.40;;
15340;SDS011;7770;52.158;5.372;2023-04-24T01:48:41;8.93;;;8.03;;
15340;SDS011;7770;52.158;5.372;2023-04-24T01:51:27;10.87;;;7.97;;
15340;SDS011;7770;52.158;5.372;2023-04-24T01:54:13;10.50;;;9.40;;
15340;SDS011;7770;52.158;5.372;2023-04-24T01:56:59;10.17;;;8.70;;
15340;SDS011;7770;52.158;5.372;2023-04-24T01:59:47;10.27;;;9.10;;
15340;SDS011;7770;52.158;5.372;2023-04-24T02:02:33;11.37;;;9.13;;
15340;SDS011;7770;52.158;5.372;2023-04-24T02:05:19;10.03;;;9.03;;
15340;SDS011;7770;52.158;5.372;2023-04-24T02:08:05;11.07;;;9.77;;
15340;SDS011;7770;52.158;5.372;2023-04-24T02:10:51;11.10;;;10.00;;
15340;SDS011;7770;52.158;5.372;2023-04-24T02:13:37;13.07;;;10.60;;
15340;SDS011;7770;52.158;5.372;2023-04-24T02:16:23;11.47;;;10.10;;
15340;SDS011;7770;52.158;5.372;2023-04-24T02:19:10;10.53;;;9.43;;
15340;SDS011;7770;52.158;5.372;2023-04-24T02:21:56;10.57;;;9.57;;
15340;SDS011;7770;52.158;5.372;2023-04-24T02:24:41;10.20;;;9.10;;
15340;SDS011;7770;52.158;5.372;2023-04-24T02:27:28;10.77;;;8.97;;
15340;SDS011;7770;52.158;5.372;2023-04-24T02:30:14;10.73;;;9.60;;
15340;SDS011;7770;52.158;5.372;2023-04-24T02:33:00;10.07;;;8.80;;
15340;SDS011;7770;52.158;5.372;2023-04-24T02:35:46;9.63;;;8.73;;
15340;SDS011;7770;52.158;5.372;2023-04-24T02:38:32;10.43;;;8.97;;
15340;SDS011;7770;52.158;5.372;2023-04-24T02:41:18;10.47;;;8.73;;
15340;SDS011;7770;52.158;5.372;2023-04-24T02:44:05;8.97;;;8.13;;
15340;SDS011;7770;52.158;5.372;2023-04-24T02:46:51;8.80;;;8.00;;
15340;SDS011;7770;52.158;5.372;2023-04-24T02:49:36;10.97;;;8.20;;
15340;SDS011;7770;52.158;5.372;2023-04-24T02:52:22;9.10;;;7.57;;
15340;SDS011;7770;52.158;5.372;2023-04-24T02:55:09;9.20;;;7.80;;
15340;SDS011;7770;52.158;5.372;2023-04-24T02:57:55;9.57;;;8.57;;
15340;SDS011;7770;52.158;5.372;2023-04-24T03:00:41;10.33;;;8.37;;
15340;SDS011;7770;52.158;5.372;2023-04-24T03:03:27;9.10;;;8.20;;
15340;SDS011;7770;52.158;5.372;2023-04-24T03:06:13;9.07;;;8.07;;
15340;SDS011;7770;52.158;5.372;2023-04-24T03:08:59;7.80;;;7.07;;
15340;SDS011;7770;52.158;5.372;2023-04-24T03:11:45;6.97;;;6.27;;
15340;SDS011;7770;52.158;5.372;2023-04-24T03:14:31;6.23;;;5.63;;
15340;SDS011;7770;52.158;5.372;2023-04-24T03:17:17;6.00;;;4.63;;
15340;SDS011;7770;52.158;5.372;2023-04-24T03:20:03;4.93;;;4.00;;
15340;SDS011;7770;52.158;5.372;2023-04-24T03:22:50;6.23;;;4.00;;
15340;SDS011;7770;52.158;5.372;2023-04-24T03:25:36;5.20;;;4.00;;
15340;SDS011;7770;52.158;5.372;2023-04-24T03:28:22;4.20;;;3.80;;
15340;SDS011;7770;52.158;5.372;2023-04-24T03:31:10;4.67;;;3.80;;
15340;SDS011;7770;52.158;5.372;2023-04-24T03:33:56;4.70;;;3.80;;
15340;SDS011;7770;52.158;5.372;2023-04-24T03:36:42;4.23;;;3.60;;
15340;SDS011;7770;52.158;5.372;2023-04-24T03:39:28;3.47;;;3.17;;
15340;SDS011;7770;52.158;5.372;2023-04-24T03:42:14;4.27;;;3.13;;
15340;SDS011;7770;52.158;5.372;2023-04-24T03:45:00;3.40;;;3.10;;
15340;SDS011;7770;52.158;5.372;2023-04-24T03:47:46;3.60;;;3.30;;
15340;SDS011;7770;52.158;5.372;2023-04-24T03:50:32;4.00;;;3.20;;
15340;SDS011;7770;52.158;5.372;2023-04-24T03:53:18;3.33;;;2.93;;
15340;SDS011;7770;52.158;5.372;2023-04-24T03:56:05;3.00;;;2.73;;
15340;SDS011;7770;52.158;5.372;2023-04-24T03:58:51;3.20;;;2.90;;
15340;SDS011;7770;52.158;5.372;2023-04-24T04:01:37;3.17;;;2.87;;
15340;SDS011;7770;52.158;5.372;2023-04-24T04:04:23;3.03;;;2.53;;
15340;SDS011;7770;52.158;5.372;2023-04-24T04:07:09;3.00;;;2.70;;
15340;SDS011;7770;52.158;5.372;2023-04-24T04:09:55;3.90;;;3.27;;
15340;SDS011;7770;52.158;5.372;2023-04-24T04:12:41;3.43;;;2.60;;
15340;SDS011;7770;52.158;5.372;2023-04-24T04:15:27;3.47;;;2.70;;
15340;SDS011;7770;52.158;5.372;2023-04-24T04:18:13;2.90;;;2.60;;
15340;SDS011;7770;52.158;5.372;2023-04-24T04:20:59;2.60;;;2.40;;
15340;SDS011;7770;52.158;5.372;2023-04-24T04:23:46;2.70;;;2.50;;
15340;SDS011;7770;52.158;5.372;2023-04-24T04:26:33;3.20;;;2.90;;
15340;SDS011;7770;52.158;5.372;2023-04-24T04:29:20;4.47;;;3.20;;
15340;SDS011;7770;52.158;5.372;2023-04-24T04:32:07;3.60;;;3.23;;
15340;SDS011;7770;52.158;5.372;2023-04-24T04:34:53;4.10;;;3.70;;
15340;SDS011;7770;52.158;5.372;2023-04-24T04:37:39;4.23;;;3.83;;
15340;SDS011;7770;52.158;5.372;2023-04-24T04:40:25;5.13;;;4.30;;
15340;SDS011;7770;52.158;5.372;2023-04-24T04:43:13;5.83;;;4.80;;
15340;SDS011;7770;52.158;5.372;2023-04-24T04:46:00;5.90;;;4.87;;
15340;SDS011;7770;52.158;5.372;2023-04-24T04:48:46;6.37;;;5.70;;
15340;SDS011;7770;52.158;5.372;2023-04-24T04:51:32;6.70;;;5.17;;
15340;SDS011;7770;52.158;5.372;2023-04-24T04:54:18;6.63;;;5.93;;
15340;SDS011;7770;52.158;5.372;2023-04-24T04:57:04;7.30;;;6.57;;
15340;SDS011;7770;52.158;5.372;2023-04-24T04:59:51;8.57;;;6.80;;
15340;SDS011;7770;52.158;5.372;2023-04-24T05:02:37;7.60;;;6.60;;
15340;SDS011;7770;52.158;5.372;2023-04-24T05:05:24;9.57;;;7.20;;
15340;SDS011;7770;52.158;5.372;2023-04-24T05:08:10;7.23;;;6.23;;
15340;SDS011;7770;52.158;5.372;2023-04-24T05:10:56;8.97;;;7.13;;
15340;SDS011;7770;52.158;5.372;2023-04-24T05:13:42;8.23;;;7.33;;
15340;SDS011;7770;52.158;5.372;2023-04-24T05:16:28;7.90;;;7.10;;
15340;SDS011;7770;52.158;5.372;2023-04-24T05:19:14;8.43;;;7.03;;
15340;SDS011;7770;52.158;5.372;2023-04-24T05:22:00;8.43;;;6.90;;
15340;SDS011;7770;52.158;5.372;2023-04-24T05:24:48;9.27;;;7.13;;
15340;SDS011;7770;52.158;5.372;2023-04-24T05:27:34;8.37;;;7.13;;
15340;SDS011;7770;52.158;5.372;2023-04-24T05:30:20;8.10;;;7.30;;
15340;SDS011;7770;52.158;5.372;2023-04-24T05:33:06;9.03;;;7.97;;
15340;SDS011;7770;52.158;5.372;2023-04-24T05:35:54;10.57;;;7.60;;
15340;SDS011;7770;52.158;5.372;2023-04-24T05:38:40;8.60;;;7.20;;
15340;SDS011;7770;52.158;5.372;2023-04-24T05:41:26;8.73;;;7.70;;
15340;SDS011;7770;52.158;5.372;2023-04-24T05:44:12;9.50;;;6.50;;
15340;SDS011;7770;52.158;5.372;2023-04-24T05:46:58;7.67;;;6.43;;
15340;SDS011;7770;52.158;5.372;2023-04-24T05:49:44;7.23;;;6.10;;
15340;SDS011;7770;52.158;5.372;2023-04-24T05:52:30;7.10;;;6.27;;
15340;SDS011;7770;52.158;5.372;2023-04-24T05:55:16;7.20;;;5.03;;
15340;SDS011;7770;52.158;5.372;2023-04-24T05:58:03;4.30;;;3.90;;
15340;SDS011;7770;52.158;5.372;2023-04-24T06:00:49;4.83;;;3.57;;
15340;SDS011;7770;52.158;5.372;2023-04-24T06:03:35;3.87;;;3.30;;
15340;SDS011;7770;52.158;5.372;2023-04-24T06:06:21;4.60;;;2.80;;
15340;SDS011;7770;52.158;5.372;2023-04-24T06:09:09;3.10;;;2.10;;
15340;SDS011;7770;52.158;5.372;2023-04-24T06:11:55;4.83;;;2.17;;
15340;SDS011;7770;52.158;5.372;2023-04-24T06:14:41;5.10;;;2.30;;
15340;SDS011;7770;52.158;5.372;2023-04-24T06:17:27;2.87;;;2.33;;
15340;SDS011;7770;52.158;5.372;2023-04-24T06:20:13;4.13;;;2.60;;
15340;SDS011;7770;52.158;5.372;2023-04-24T06:22:59;2.47;;;2.10;;
15340;SDS011;7770;52.158;5.372;2023-04-24T06:25:45;2.90;;;2.30;;
15340;SDS011;7770;52.158;5.372;2023-04-24T06:28:31;3.07;;;2.33;;
15340;SDS011;7770;52.158;5.372;2023-04-24T06:31:17;2.57;;;2.30;;
15340;SDS011;7770;52.158;5.372;2023-04-24T06:34:03;6.17;;;4.60;;
15340;SDS011;7770;52.158;5.372;2023-04-24T06:36:49;7.13;;;5.37;;
15340;SDS011;7770;52.158;5.372;2023-04-24T06:39:35;10.80;;;8.20;;
15340;SDS011;7770;52.158;5.372;2023-04-24T06:42:21;11.53;;;9.10;;
15340;SDS011;7770;52.158;5.372;2023-04-24T06:45:09;13.93;;;11.60;;
15340;SDS011;7770;52.158;5.372;2023-04-24T06:47:55;22.43;;;14.90;;
15340;SDS011;7770;52.158;5.372;2023-04-24T06:50:41;20.10;;;15.63;;
15340;SDS011;7770;52.158;5.372;2023-04-24T06:53:27;22.63;;;17.27;;
15340;SDS011;7770;52.158;5.372;2023-04-24T06:56:14;26.00;;;17.73;;
15340;SDS011;7770;52.158;5.372;2023-04-24T06:59:00;22.97;;;16.53;;
15340;SDS011;7770;52.158;5.372;2023-04-24T07:01:46;23.40;;;16.53;;
15340;SDS011;7770;52.158;5.372;2023-04-24T07:04:32;23.83;;;18.80;;
15340;SDS011;7770;52.158;5.372;2023-04-24T07:07:18;20.83;;;17.43;;
15340;SDS011;7770;52.158;5.372;2023-04-24T07:10:04;24.47;;;17.83;;
15340;SDS011;7770;52.158;5.372;2023-04-24T07:12:51;25.47;;;16.97;;
15340;SDS011;7770;52.158;5.372;2023-04-24T07:15:37;23.77;;;16.27;;
15340;SDS011;7770;52.158;5.372;2023-04-24T07:18:23;23.60;;;16.47;;
15340;SDS011;7770;52.158;5.372;2023-04-24T07:21:09;20.43;;;16.67;;
15340;SDS011;7770;52.158;5.372;2023-04-24T07:23:56;20.00;;;15.27;;
15340;SDS011;7770;52.158;5.372;2023-04-24T07:26:43;21.13;;;15.77;;
15340;SDS011;7770;52.158;5.372;2023-04-24T07:29:29;23.03;;;15.33;;
15340;SDS011;7770;52.158;5.372;2023-04-24T07:32:15;25.47;;;15.47;;
15340;SDS011;7770;52.158;5.372;2023-04-24T07:35:01;21.30;;;15.33;;
15340;SDS011;7770;52.158;5.372;2023-04-24T07:37:47;23.47;;;15.87;;
15340;SDS011;7770;52.158;5.372;2023-04-24T07:40:33;20.63;;;14.27;;
15340;SDS011;7770;52.158;5.372;2023-04-24T07:43:19;22.10;;;14.40;;
15340;SDS011;7770;52.158;5.372;2023-04-24T07:46:06;21.50;;;14.10;;
15340;SDS011;7770;52.158;5.372;2023-04-24T07:48:53;19.67;;;14.50;;
15340;SDS011;7770;52.158;5.372;2023-04-24T07:51:40;21.97;;;13.90;;
15340;SDS011;7770;52.158;5.372;2023-04-24T07:54:26;22.00;;;14.17;;
15340;SDS011;7770;52.158;5.372;2023-04-24T07:57:12;19.33;;;13.93;;
15340;SDS011;7770;52.158;5.372;2023-04-24T07:59:59;21.80;;;14.57;;
15340;SDS011;7770;52.158;5.372;2023-04-24T08:02:45;21.97;;;14.73;;
15340;SDS011;7770;52.158;5.372;2023-04-24T08:05:31;23.30;;;14.10;;
15340;SDS011;7770;52.158;5.372;2023-04-24T08:08:17;23.47;;;14.13;;
15340;SDS011;7770;52.158;5.372;2023-04-24T08:11:06;15.20;;;10.47;;
15340;SDS011;7770;52.158;5.372;2023-04-24T08:13:52;15.73;;;9.70;;
15340;SDS011;7770;52.158;5.372;2023-04-24T08:16:38;18.27;;;9.50;;
15340;SDS011;7770;52.158;5.372;2023-04-24T08:19:24;17.30;;;9.80;;
15340;SDS011;7770;52.158;5.372;2023-04-24T08:22:10;16.97;;;9.53;;
15340;SDS011;7770;52.158;5.372;2023-04-24T08:24:57;13.37;;;8.87;;
15340;SDS011;7770;52.158;5.372;2023-04-24T08:27:45;12.30;;;7.50;;
15340;SDS011;7770;52.158;5.372;2023-04-24T08:30:31;15.67;;;8.17;;
15340;SDS011;7770;52.158;5.372;2023-04-24T08:33:17;14.07;;;7.50;;
15340;SDS011;7770;52.158;5.372;2023-04-24T08:36:03;18.10;;;8.90;;
15340;SDS011;7770;52.158;5.372;2023-04-24T08:38:50;12.70;;;8.43;;
15340;SDS011;7770;52.158;5.372;2023-04-24T08:41:37;18.37;;;8.57;;
15340;SDS011;7770;52.158;5.372;2023-04-24T08:44:23;15.93;;;8.23;;
15340;SDS011;7770;52.158;5.372;2023-04-24T08:47:10;14.83;;;8.03;;
15340;SDS011;7770;52.158;5.372;2023-04-24T08:49:57;22.90;;;7.37;;
15340;SDS011;7770;52.158;5.372;2023-04-24T08:52:44;13.50;;;6.37;;
15340;SDS011;7770;52.158;5.372;2023-04-24T08:55:30;13.77;;;6.00;;
15340;SDS011;7770;52.158;5.372;2023-04-24T08:58:18;12.67;;;5.20;;
15340;SDS011;7770;52.158;5.372;2023-04-24T09:01:04;14.40;;;4.83;;
15340;SDS011;7770;52.158;5.372;2023-04-24T09:03:50;10.27;;;4.30;;
15340;SDS011;7770;52.158;5.372;2023-04-24T09:06:38;11.30;;;4.30;;
15340;SDS011;7770;52.158;5.372;2023-04-24T09:09:26;9.07;;;3.87;;
15340;SDS011;7770;52.158;5.372;2023-04-24T09:12:16;11.63;;;4.53;;
15340;SDS011;7770;52.158;5.372;2023-04-24T09:15:04;11.90;;;4.60;;
15340;SDS011;7770;52.158;5.372;2023-04-24T09:17:52;11.40;;;4.30;;
15340;SDS011;7770;52.158;5.372;2023-04-24T09:24:00;10.87;;;4.40;;
15340;SDS011;7770;52.158;5.372;2023-04-24T09:26:49;9.17;;;4.17;;
15340;SDS011;7770;52.158;5.372;2023-04-24T09:29:54;10.63;;;4.30;;
15340;SDS011;7770;52.158;5.372;2023-04-24T09:32:43;11.33;;;4.57;;
15340;SDS011;7770;52.158;5.372;2023-04-24T09:35:29;13.00;;;4.63;;
15340;SDS011;7770;52.158;5.372;2023-04-24T09:38:17;9.43;;;3.87;;
15340;SDS011;7770;52.158;5.372;2023-04-24T09:41:07;11.13;;;4.17;;
15340;SDS011;7770;52.158;5.372;2023-04-24T09:44:12;8.37;;;3.80;;
15340;SDS011;7770;52.158;5.372;2023-04-24T09:47:03;12.80;;;4.40;;
15340;SDS011;7770;52.158;5.372;2023-04-24T09:49:57;10.47;;;3.90;;
15340;SDS011;7770;52.158;5.372;2023-04-24T09:52:44;12.73;;;5.27;;
15340;SDS011;7770;52.158;5.372;2023-04-24T09:55:32;9.60;;;4.13;;
15340;SDS011;7770;52.158;5.372;2023-04-24T09:58:28;9.73;;;4.57;;
15340;SDS011;7770;52.158;5.372;2023-04-24T10:01:15;9.23;;;4.37;;
15340;SDS011;7770;52.158;5.372;2023-04-24T10:04:01;10.13;;;4.00;;
15340;SDS011;7770;52.158;5.372;2023-04-24T10:06:47;7.80;;;3.87;;
15340;SDS011;7770;52.158;5.372;2023-04-24T10:09:35;8.27;;;3.60;;
15340;SDS011;7770;52.158;5.372;2023-04-24T10:12:21;11.43;;;3.63;;
15340;SDS011;7770;52.158;5.372;2023-04-24T10:15:10;9.10;;;3.50;;
15340;SDS011;7770;52.158;5.372;2023-04-24T10:17:58;5.77;;;3.23;;
15340;SDS011;7770;52.158;5.372;2023-04-24T10:20:44;5.43;;;3.13;;
15340;SDS011;7770;52.158;5.372;2023-04-24T10:23:31;9.83;;;3.50;;
15340;SDS011;7770;52.158;5.372;2023-04-24T10:26:17;7.00;;;3.43;;
15340;SDS011;7770;52.158;5.372;2023-04-24T10:29:05;4.40;;;2.57;;
15340;SDS011;7770;52.158;5.372;2023-04-24T10:31:55;6.60;;;2.90;;
15340;SDS011;7770;52.158;5.372;2023-04-24T10:34:41;4.50;;;2.10;;
15340;SDS011;7770;52.158;5.372;2023-04-24T10:37:27;3.40;;;1.70;;
15340;SDS011;7770;52.158;5.372;2023-04-24T10:40:17;5.77;;;2.30;;
15340;SDS011;7770;52.158;5.372;2023-04-24T10:43:05;4.47;;;2.00;;
15340;SDS011;7770;52.158;5.372;2023-04-24T10:46:01;4.77;;;1.97;;
15340;SDS011;7770;52.158;5.372;2023-04-24T10:48:53;5.77;;;1.97;;
15340;SDS011;7770;52.158;5.372;2023-04-24T10:51:44;2.83;;;1.90;;
15340;SDS011;7770;52.158;5.372;2023-04-24T10:54:36;4.77;;;1.70;;
15340;SDS011;7770;52.158;5.372;2023-04-24T10:57:26;4.07;;;1.80;;
15340;SDS011;7770;52.158;5.372;2023-04-24T11:00:19;3.37;;;1.83;;
15340;SDS011;7770;52.158;5.372;2023-04-24T11:03:07;5.10;;;1.93;;
15340;SDS011;7770;52.158;5.372;2023-04-24T11:06:09;4.90;;;1.87;;
15340;SDS011;7770;52.158;5.372;2023-04-24T11:09:01;6.23;;;2.43;;
15340;SDS011;7770;52.158;5.372;2023-04-24T11:12:04;7.20;;;2.30;;
15340;SDS011;7770;52.158;5.372;2023-04-24T11:17:42;6.30;;;2.43;;
15340;SDS011;7770;52.158;5.372;2023-04-24T11:20:28;6.50;;;2.50;;
15340;SDS011;7770;52.158;5.372;2023-04-24T11:23:16;5.73;;;2.50;;
15340;SDS011;7770;52.158;5.372;2023-04-24T11:26:10;5.87;;;2.43;;
15340;SDS011;7770;52.158;5.372;2023-04-24T11:29:07;4.93;;;2.10;;
15340;SDS011;7770;52.158;5.372;2023-04-24T11:31:53;3.87;;;2.10;;
15340;SDS011;7770;52.158;5.372;2023-04-24T11:34:39;5.00;;;1.70;;
15340;SDS011;7770;52.158;5.372;2023-04-24T11:37:27;2.57;;;1.63;;
15340;SDS011;7770;52.158;5.372;2023-04-24T11:40:20;2.00;;;1.50;;
15340;SDS011;7770;52.158;5.372;2023-04-24T11:43:08;3.20;;;1.50;;
15340;SDS011;7770;52.158;5.372;2023-04-24T11:45:55;2.83;;;1.47;;
15340;SDS011;7770;52.158;5.372;2023-04-24T11:48:45;1.80;;;1.30;;
15340;SDS011;7770;52.158;5.372;2023-04-24T11:51:31;3.60;;;1.30;;
15340;SDS011;7770;52.158;5.372;2023-04-24T11:54:17;1.60;;;1.40;;
15340;SDS011;7770;52.158;5.372;2023-04-24T11:57:04;2.13;;;1.30;;
15340;SDS011;7770;52.158;5.372;2023-04-24T11:59:51;3.63;;;1.40;;
15340;SDS011;7770;52.158;5.372;2023-04-24T12:02:37;1.80;;;1.50;;
15340;SDS011;7770;52.158;5.372;2023-04-24T12:05:25;2.07;;;1.40;;
15340;SDS011;7770;52.158;5.372;2023-04-24T12:08:26;3.50;;;1.50;;
15340;SDS011;7770;52.158;5.372;2023-04-24T12:11:16;2.87;;;1.77;;
15340;SDS011;7770;52.158;5.372;2023-04-24T12:14:10;3.40;;;1.70;;
15340;SDS011;7770;52.158;5.372;2023-04-24T12:16:57;5.80;;;1.83;;
15340;SDS011;7770;52.158;5.372;2023-04-24T12:19:47;5.00;;;2.00;;
15340;SDS011;7770;52.158;5.372;2023-04-24T12:22:45;5.77;;;1.90;;
15340;SDS011;7770;52.158;5.372;2023-04-24T12:25:39;5.17;;;2.20;;
15340;SDS011;7770;52.158;5.372;2023-04-24T12:28:34;4.33;;;2.30;;
15340;SDS011;7770;52.158;5.372;2023-04-24T12:31:24;6.60;;;2.10;;
15340;SDS011;7770;52.158;5.372;2023-04-24T12:34:21;4.67;;;2.37;;
15340;SDS011;7770;52.158;5.372;2023-04-24T12:37:10;5.40;;;2.30;;
15340;SDS011;7770;52.158;5.372;2023-04-24T12:40:05;6.77;;;2.60;;
15340;SDS011;7770;52.158;5.372;2023-04-24T12:42:52;5.57;;;2.63;;
15340;SDS011;7770;52.158;5.372;2023-04-24T12:45:38;7.17;;;2.83;;
15340;SDS011;7770;52.158;5.372;2023-04-24T12:48:27;5.37;;;2.63;;
15340;SDS011;7770;52.158;5.372;2023-04-24T12:51:15;9.57;;;2.63;;
15340;SDS011;7770;52.158;5.372;2023-04-24T12:54:01;8.17;;;2.87;;
15340;SDS011;7770;52.158;5.372;2023-04-24T12:56:47;7.90;;;2.70;;
15340;SDS011;7770;52.158;5.372;2023-04-24T12:59:33;7.90;;;2.87;;
15340;SDS011;7770;52.158;5.372;2023-04-24T13:02:19;6.77;;;3.17;;
15340;SDS011;7770;52.158;5.372;2023-04-24T13:05:06;9.33;;;3.83;;
15340;SDS011;7770;52.158;5.372;2023-04-24T13:07:53;8.93;;;3.57;;
15340;SDS011;7770;52.158;5.372;2023-04-24T13:10:39;9.03;;;4.27;;
15340;SDS011;7770;52.158;5.372;2023-04-24T13:13:26;7.27;;;3.67;;
15340;SDS011;7770;52.158;5.372;2023-04-24T13:16:12;9.73;;;3.50;;
15340;SDS011;7770;52.158;5.372;2023-04-24T13:18:58;12.70;;;3.83;;
15340;SDS011;7770;52.158;5.372;2023-04-24T13:21:44;10.77;;;4.03;;
15340;SDS011;7770;52.158;5.372;2023-04-24T13:24:30;9.87;;;3.50;;
15340;SDS011;7770;52.158;5.372;2023-04-24T13:27:16;9.77;;;3.60;;
15340;SDS011;7770;52.158;5.372;2023-04-24T13:30:03;9.03;;;4.23;;
15340;SDS011;7770;52.158;5.372;2023-04-24T13:32:49;5.40;;;3.40;;
15340;SDS011;7770;52.158;5.372;2023-04-24T13:35:35;9.37;;;3.97;;
15340;SDS011;7770;52.158;5.372;2023-04-24T13:38:21;8.83;;;4.17;;
15340;SDS011;7770;52.158;5.372;2023-04-24T13:41:08;10.87;;;3.87;;
15340;SDS011;7770;52.158;5.372;2023-04-24T13:43:54;7.83;;;3.57;;
15340;SDS011;7770;52.158;5.372;2023-04-24T13:46:40;9.20;;;3.77;;
15340;SDS011;7770;52.158;5.372;2023-04-24T13:49:29;10.87;;;4.23;;
15340;SDS011;7770;52.158;5.372;2023-04-24T13:52:15;8.13;;;4.17;;
15340;SDS011;7770;52.158;5.372;2023-04-24T13:55:02;14.07;;;4.60;;
15340;SDS011;7770;52.158;5.372;2023-04-24T13:57:48;12.77;;;4.80;;
15340;SDS011;7770;52.158;5.372;2023-04-24T14:00:34;11.27;;;4.20;;
15340;SDS011;7770;52.158;5.372;2023-04-24T14:03:20;10.63;;;3.90;;
15340;SDS011;7770;52.158;5.372;2023-04-24T14:06:06;12.20;;;4.67;;
15340;SDS011;7770;52.158;5.372;2023-04-24T14:08:52;9.60;;;4.00;;
15340;SDS011;7770;52.158;5.372;2023-04-24T14:11:38;10.13;;;4.13;;
15340;SDS011;7770;52.158;5.372;2023-04-24T14:14:24;9.07;;;4.23;;
15340;SDS011;7770;52.158;5.372;2023-04-24T14:17:10;13.93;;;4.77;;
15340;SDS011;7770;52.158;5.372;2023-04-24T14:19:56;9.50;;;4.50;;
15340;SDS011;7770;52.158;5.372;2023-04-24T14:22:45;8.90;;;4.67;;
15340;SDS011;7770;52.158;5.372;2023-04-24T14:25:31;10.70;;;4.53;;
15340;SDS011;7770;52.158;5.372;2023-04-24T14:28:17;13.83;;;4.97;;
15340;SDS011;7770;52.158;5.372;2023-04-24T14:31:04;12.00;;;4.80;;
15340;SDS011;7770;52.158;5.372;2023-04-24T14:33:50;8.23;;;4.50;;
15340;SDS011;7770;52.158;5.372;2023-04-24T14:36:36;11.23;;;4.63;;
15340;SDS011;7770;52.158;5.372;2023-04-24T14:39:22;7.93;;;4.03;;
15340;SDS011;7770;52.158;5.372;2023-04-24T14:42:08;11.47;;;4.37;;
15340;SDS011;7770;52.158;5.372;2023-04-24T14:44:54;13.13;;;5.10;;
15340;SDS011;7770;52.158;5.372;2023-04-24T14:47:40;8.27;;;4.90;;
15340;SDS011;7770;52.158;5.372;2023-04-24T14:50:26;10.57;;;4.70;;
15340;SDS011;7770;52.158;5.372;2023-04-24T14:53:13;13.70;;;5.10;;
15340;SDS011;7770;52.158;5.372;2023-04-24T14:56:00;11.70;;;4.77;;
15340;SDS011;7770;52.158;5.372;2023-04-24T14:58:46;12.00;;;5.77;;
15340;SDS011;7770;52.158;5.372;2023-04-24T15:01:32;10.73;;;5.30;;
15340;SDS011;7770;52.158;5.372;2023-04-24T15:04:18;12.07;;;4.70;;
15340;SDS011;7770;52.158;5.372;2023-04-24T15:07:05;13.97;;;5.17;;
15340;SDS011;7770;52.158;5.372;2023-04-24T15:09:51;8.77;;;4.70;;
15340;SDS011;7770;52.158;5.372;2023-04-24T15:12:37;11.00;;;4.47;;
15340;SDS011;7770;52.158;5.372;2023-04-24T15:15:24;10.10;;;4.60;;
15340;SDS011;7770;52.158;5.372;2023-04-24T15:18:10;11.97;;;4.80;;
15340;SDS011;7770;52.158;5.372;2023-04-24T15:20:57;12.87;;;4.80;;
15340;SDS011;7770;52.158;5.372;2023-04-24T15:23:43;12.30;;;5.17;;
15340;SDS011;7770;52.158;5.372;2023-04-24T15:26:29;10.70;;;5.80;;
15340;SDS011;7770;52.158;5.372;2023-04-24T15:29:15;11.50;;;5.60;;
15340;SDS011;7770;52.158;5.372;2023-04-24T15:32:01;11.87;;;5.30;;
15340;SDS011;7770;52.158;5.372;2023-04-24T15:34:47;11.30;;;4.67;;
15340;SDS011;7770;52.158;5.372;2023-04-24T15:37:33;8.63;;;4.53;;
15340;SDS011;7770;52.158;5.372;2023-04-24T15:40:19;11.17;;;5.10;;
15340;SDS011;7770;52.158;5.372;2023-04-24T15:43:05;12.40;;;5.20;;
15340;SDS011;7770;52.158;5.372;2023-04-24T15:45:51;9.37;;;4.80;;
15340;SDS011;7770;52.158;5.372;2023-04-24T15:48:37;12.40;;;5.10;;
15340;SDS011;7770;52.158;5.372;2023-04-24T15:51:26;13.27;;;5.77;;
15340;SDS011;7770;52.158;5.372;2023-04-24T15:54:12;11.60;;;5.50;;
15340;SDS011;7770;52.158;5.372;2023-04-24T15:56:58;9.67;;;5.00;;
15340;SDS011;7770;52.158;5.372;2023-04-24T15:59:45;12.27;;;5.50;;
15340;SDS011;7770;52.158;5.372;2023-04-24T16:02:32;11.07;;;4.67;;
15340;SDS011;7770;52.158;5.372;2023-04-24T16:05:18;12.13;;;5.10;;
15340;SDS011;7770;52.158;5.372;2023-04-24T16:08:04;9.57;;;5.10;;
15340;SDS011;7770;52.158;5.372;2023-04-24T16:10:51;9.47;;;4.77;;
15340;SDS011;7770;52.158;5.372;2023-04-24T16:13:37;10.30;;;5.10;;
15340;SDS011;7770;52.158;5.372;2023-04-24T16:16:23;8.87;;;5.20;;
15340;SDS011;7770;52.158;5.372;2023-04-24T16:19:09;11.60;;;4.93;;
15340;SDS011;7770;52.158;5.372;2023-04-24T16:21:55;10.40;;;5.83;;
15340;SDS011;7770;52.158;5.372;2023-04-24T16:24:42;11.77;;;5.07;;
15340;SDS011;7770;52.158;5.372;2023-04-24T16:27:29;8.97;;;5.47;;
15340;SDS011;7770;52.158;5.372;2023-04-24T16:30:15;13.00;;;5.93;;
15340;SDS011;7770;52.158;5.372;2023-04-24T16:33:01;10.77;;;5.23;;
15340;SDS011;7770;52.158;5.372;2023-04-24T16:35:51;11.53;;;5.60;;
15340;SDS011;7770;52.158;5.372;2023-04-24T16:38:37;8.63;;;5.13;;
15340;SDS011;7770;52.158;5.372;2023-04-24T16:41:23;11.10;;;5.43;;
15340;SDS011;7770;52.158;5.372;2023-04-24T16:44:09;11.90;;;5.13;;
15340;SDS011;7770;52.158;5.372;2023-04-24T16:46:56;13.27;;;5.67;;
15340;SDS011;7770;52.158;5.372;2023-04-24T16:49:42;14.63;;;5.70;;
15340;SDS011;7770;52.158;5.372;2023-04-24T16:52:28;16.80;;;6.00;;
15340;SDS011;7770;52.158;5.372;2023-04-24T16:55:14;13.87;;;6.57;;
15340;SDS011;7770;52.158;5.372;2023-04-24T16:58:00;11.27;;;5.93;;
15340;SDS011;7770;52.158;5.372;2023-04-24T17:00:46;11.53;;;5.63;;